Terminal Aerodrome Forecast
Issued by NWS

Home | Current Version | Previous Version | Graphics & Text | Print | Product List | Glossary Off
Versions: 1 2 3 4 5 6 7 8 9 10 11 12 13 14 15 16 17 18 19 20 21 22

000
FTUS43 KABR 231441 AAB
TAFMBG
TAF AMD
KMBG 231441Z 2315/2412 00000KT 3SM BR SCT001
      TEMPO 2315/2316 P6SM NSW BKN200
     FM231600 30006KT P6SM BKN200
     FM231700 30008KT P6SM SCT200
     FM240400 29004KT P6SM FEW250=

USA.gov is the U.S. government's official web portal to all federal, state and local government web resources and services.